createdAt,value
2023-05-24T00:00:24.845Z,98599.38
2023-05-24T00:01:26.577Z,98604.69
2023-05-24T00:02:28.417Z,98611.38
2023-05-24T00:03:31.250Z,98603.41
2023-05-24T00:04:33.713Z,98607.34
2023-05-24T00:05:38.022Z,98602.34
2023-05-24T00:06:39.803Z,98605.72
2023-05-24T00:07:41.575Z,98600.94
2023-05-24T00:08:43.399Z,98600.03
2023-05-24T00:09:45.197Z,98602.47
2023-05-24T00:10:47.008Z,98600.03
2023-05-24T00:11:48.851Z,98595.16
2023-05-24T00:12:51.014Z,98602.53
2023-05-24T00:13:52.788Z,98598.28
2023-05-24T00:14:54.601Z,98603.28
2023-05-24T00:15:56.400Z,98603.00
2023-05-24T00:16:58.282Z,98596.47
2023-05-24T00:18:00.247Z,98599.69
2023-05-24T00:19:02.390Z,98598.88
2023-05-24T00:20:06.673Z,98591.13
2023-05-24T00:21:09.127Z,98600.19
2023-05-24T00:22:11.993Z,98607.59
2023-05-24T00:23:13.746Z,98602.84
2023-05-24T00:24:17.361Z,98601.16
2023-05-24T00:25:19.212Z,98608.56
2023-05-24T00:26:21.599Z,98591.66
2023-05-24T00:27:23.411Z,98598.59
2023-05-24T00:28:25.242Z,98598.25
2023-05-24T00:29:26.981Z,98597.44
2023-05-24T00:30:28.769Z,98600.69
2023-05-24T00:31:30.696Z,98602.34
2023-05-24T00:32:32.509Z,98597.91
2023-05-24T00:33:34.524Z,98592.91
2023-05-24T00:34:36.314Z,98602.56
2023-05-24T00:35:38.060Z,98601.03
2023-05-24T00:36:39.837Z,98596.28
2023-05-24T00:37:45.331Z,98599.47
2023-05-24T00:38:47.446Z,98596.34
2023-05-24T00:39:49.193Z,98599.25
2023-05-24T00:40:51.157Z,98593.38
2023-05-24T00:41:53.212Z,98600.94
2023-05-24T00:42:55.061Z,98594.81
2023-05-24T00:43:56.879Z,98595.97
2023-05-24T00:44:58.648Z,98595.41
2023-05-24T00:46:22.532Z,98588.22
2023-05-24T00:47:24.528Z,98580.81
2023-05-24T00:48:28.948Z,98578.38
2023-05-24T00:49:31.580Z,98580.00
2023-05-24T00:50:34.033Z,98572.00
2023-05-24T00:51:37.206Z,98570.16
2023-05-24T00:52:43.068Z,98573.06
2023-05-24T00:53:47.509Z,98578.94
2023-05-24T00:54:49.852Z,98569.81
2023-05-24T00:55:51.723Z,98571.91
2023-05-24T00:56:54.964Z,98574.31
2023-05-24T00:57:59.697Z,98577.56
2023-05-24T00:59:01.471Z,98576.78
2023-05-24T01:00:06.000Z,98567.16
2023-05-24T01:01:08.466Z,98564.41
2023-05-24T01:02:10.675Z,98567.38
2023-05-24T01:03:12.546Z,98570.28
2023-05-24T01:04:14.664Z,98572.38
2023-05-24T01:05:17.563Z,98572.72
2023-05-24T01:06:19.791Z,98572.16
2023-05-24T01:07:54.611Z,98572.72
2023-05-24T01:09:26.001Z,98563.59
2023-05-24T01:10:52.468Z,98565.47
2023-05-24T01:12:07.148Z,98559.31
2023-05-24T01:13:27.459Z,98562.22
2023-05-24T01:14:52.190Z,98565.16
2023-05-24T01:16:01.604Z,98556.06
2023-05-24T01:17:15.244Z,98560.09
2023-05-24T01:18:26.245Z,98565.88
2023-05-24T01:19:51.884Z,98565.31
2023-05-24T01:21:06.810Z,98561.84
2023-05-24T01:22:24.566Z,98555.72
2023-05-24T01:23:51.902Z,98555.72
2023-05-24T01:25:07.569Z,98554.94
2023-05-24T01:26:27.972Z,98559.19
2023-05-24T01:27:33.408Z,98542.63
2023-05-24T01:28:36.266Z,98555.69
2023-05-24T01:29:39.197Z,98557.03
2023-05-24T01:30:41.991Z,98558.34
2023-05-24T01:31:44.264Z,98557.22
2023-05-24T01:32:46.306Z,98557.78
2023-05-24T01:33:48.256Z,98558.25
2023-05-24T01:34:50.064Z,98560.84
2023-05-24T01:35:51.918Z,98562.44
2023-05-24T01:36:54.208Z,98569.63
2023-05-24T01:37:55.942Z,98554.66
2023-05-24T01:38:57.723Z,98564.53
2023-05-24T01:40:00.247Z,98559.22
2023-05-24T01:41:22.804Z,98570.38
2023-05-24T01:42:36.727Z,98568.94
2023-05-24T01:43:43.484Z,98562.44
2023-05-24T01:45:02.323Z,98568.94
2023-05-24T01:46:21.307Z,98565.22
2023-05-24T01:47:32.789Z,98567.88
2023-05-24T01:49:05.303Z,98565.56
2023-05-24T01:50:24.443Z,98564.28
2023-05-24T01:51:34.426Z,98550.66
2023-05-24T01:52:36.449Z,98554.47
2023-05-24T01:53:47.095Z,98547.53
2023-05-24T01:54:52.199Z,98556.38
2023-05-24T01:55:56.770Z,98563.78
2023-05-24T01:56:59.941Z,98572.06
2023-05-24T01:58:06.044Z,98571.03
2023-05-24T01:59:08.913Z,98541.78
2023-05-24T02:00:14.445Z,98575.53
2023-05-24T02:01:16.687Z,98581.34
2023-05-24T02:02:19.279Z,98573.53
2023-05-24T02:03:21.757Z,98574.06
2023-05-24T02:04:24.734Z,98575.69
2023-05-24T02:05:26.503Z,98586.66
2023-05-24T02:06:28.307Z,98595.19
2023-05-24T02:07:30.095Z,98591.97
2023-05-24T02:08:31.878Z,98590.81
2023-05-24T02:09:33.761Z,98595.31
2023-05-24T02:10:38.477Z,98584.59
2023-05-24T02:11:40.580Z,98592.09
2023-05-24T02:12:42.362Z,98597.66
2023-05-24T02:13:44.180Z,98600.31
2023-05-24T02:14:45.931Z,98601.91
2023-05-24T02:15:48.075Z,98602.16
2023-05-24T02:16:51.000Z,98599.19
2023-05-24T02:17:54.880Z,98601.63
2023-05-24T02:18:57.571Z,98607.97
2023-05-24T02:20:04.010Z,98608.50
2023-05-24T02:21:05.932Z,98605.84
2023-05-24T02:22:07.828Z,98604.81
2023-05-24T02:23:09.679Z,98601.03
2023-05-24T02:24:12.637Z,98605.06
2023-05-24T02:25:14.667Z,98609.66
2023-05-24T02:26:17.919Z,98604.34
2023-05-24T02:27:19.714Z,98606.19
2023-05-24T02:28:21.497Z,98597.09
2023-05-24T02:29:23.319Z,98604.91
2023-05-24T02:30:25.370Z,98604.69
2023-05-24T02:31:28.928Z,98607.56
2023-05-24T02:32:31.496Z,98605.16
2023-05-24T02:33:33.925Z,98611.03
2023-05-24T02:34:35.796Z,98607.00
2023-05-24T02:35:37.527Z,98604.09
2023-05-24T02:36:39.285Z,98604.34
2023-05-24T02:37:41.205Z,98602.41
2023-05-24T02:38:42.973Z,98604.56
2023-05-24T02:39:44.700Z,98602.41
2023-05-24T02:40:46.473Z,98612.31
2023-05-24T02:41:48.211Z,98596.84
2023-05-24T02:42:50.135Z,98614.16
2023-05-24T02:43:51.860Z,98615.78
2023-05-24T02:44:53.762Z,98615.78
2023-05-24T02:45:55.718Z,98615.53
2023-05-24T02:46:57.518Z,98615.78
2023-05-24T02:47:59.351Z,98612.78
2023-05-24T02:49:01.206Z,98618.44
2023-05-24T02:50:03.156Z,98615.94
2023-05-24T02:51:05.080Z,98622.94
2023-05-24T02:52:07.242Z,98603.31
2023-05-24T02:53:09.007Z,98620.28
2023-05-24T02:54:10.782Z,98625.03
2023-05-24T02:55:12.576Z,98622.88
2023-05-24T02:56:14.347Z,98626.56
2023-05-24T02:57:16.730Z,98625.25
2023-05-24T02:58:18.486Z,98618.03
2023-05-24T02:59:20.226Z,98622.88
2023-05-24T03:00:22.111Z,98635.88
2023-05-24T03:01:23.924Z,98629.44
2023-05-24T03:02:28.700Z,98645.00
2023-05-24T03:03:30.842Z,98638.56
2023-05-24T03:04:32.750Z,98639.53
2023-05-24T03:05:34.523Z,98639.53
2023-05-24T03:06:36.490Z,98633.28
2023-05-24T03:07:38.230Z,98643.59
2023-05-24T03:08:40.689Z,98639.34
2023-05-24T03:09:42.585Z,98626.41
2023-05-24T03:10:44.708Z,98634.13
2023-05-24T03:11:46.588Z,98628.75
2023-05-24T03:12:48.352Z,98624.59
2023-05-24T03:13:50.267Z,98626.69
2023-05-24T03:14:52.115Z,98622.41
2023-05-24T03:15:53.937Z,98627.47
2023-05-24T03:16:55.842Z,98602.50
2023-05-24T03:17:57.584Z,98627.81
2023-05-24T03:19:00.171Z,98630.59
2023-05-24T03:20:02.085Z,98639.09
2023-05-24T03:21:04.121Z,98634.38
2023-05-24T03:22:06.347Z,98636.00
2023-05-24T03:23:09.855Z,98638.06
2023-05-24T03:24:13.346Z,98636.78
2023-05-24T03:25:15.203Z,98635.53
2023-05-24T03:26:18.802Z,98634.03
2023-05-24T03:27:20.572Z,98630.78
2023-05-24T03:28:22.451Z,98635.06
2023-05-24T03:29:24.263Z,98626.28
2023-05-24T03:30:26.141Z,98626.97
2023-05-24T03:31:28.219Z,98635.72
2023-05-24T03:32:30.001Z,98623.34
2023-05-24T03:33:32.272Z,98630.13
2023-05-24T03:34:34.016Z,98631.63
2023-05-24T03:35:35.877Z,98622.88
2023-05-24T03:36:37.670Z,98633.66
2023-05-24T03:37:39.488Z,98631.66
2023-05-24T03:38:41.282Z,98622.88
2023-05-24T03:39:43.019Z,98627.81
2023-05-24T03:40:44.888Z,98628.13
2023-05-24T03:41:46.709Z,98625.00
2023-05-24T03:42:48.453Z,98625.66
2023-05-24T03:43:50.588Z,98628.16
2023-05-24T03:44:52.348Z,98630.41
2023-05-24T03:45:54.236Z,98622.84
2023-05-24T03:46:56.106Z,98615.25
2023-05-24T03:47:58.592Z,98615.72
2023-05-24T03:49:00.431Z,98616.91
2023-05-24T03:50:02.225Z,98607.88
2023-05-24T03:51:04.148Z,98607.31
2023-05-24T03:52:06.375Z,98614.97
2023-05-24T03:53:08.164Z,98603.63
2023-05-24T03:54:10.146Z,98594.13
2023-05-24T03:55:11.893Z,98610.28
2023-05-24T03:56:13.641Z,98609.03
2023-05-24T03:57:15.780Z,98611.78
2023-05-24T03:58:17.601Z,98605.25
2023-05-24T03:59:19.942Z,98600.31
2023-05-24T04:00:21.835Z,98611.34
2023-05-24T04:01:33.518Z,98609.31
2023-05-24T04:02:39.836Z,98622.25
2023-05-24T04:03:41.847Z,98617.03
2023-05-24T04:04:43.635Z,98609.06
2023-05-24T04:05:45.852Z,98620.94
2023-05-24T04:06:48.134Z,98621.28
2023-05-24T04:07:52.665Z,98622.97
2023-05-24T04:09:01.081Z,98625.47
2023-05-24T04:10:05.044Z,98631.13
2023-05-24T04:11:07.275Z,98636.28
2023-05-24T04:12:09.290Z,98606.88
2023-05-24T04:13:11.252Z,98635.38
2023-05-24T04:14:13.016Z,98633.28
2023-05-24T04:15:15.397Z,98632.53
2023-05-24T04:16:17.614Z,98628.59
2023-05-24T04:17:19.516Z,98633.44
2023-05-24T04:18:21.891Z,98640.44
2023-05-24T04:19:23.740Z,98627.91
2023-05-24T04:20:27.312Z,98636.22
2023-05-24T04:21:29.213Z,98639.44
2023-05-24T04:22:30.960Z,98635.72
2023-05-24T04:23:32.758Z,98637.84
2023-05-24T04:24:34.504Z,98641.56
2023-05-24T04:25:36.377Z,98639.13
2023-05-24T04:26:38.156Z,98638.34
2023-05-24T04:27:40.104Z,98643.66
2023-05-24T04:28:42.540Z,98636.94
2023-05-24T04:29:50.073Z,98634.75
2023-05-24T04:30:52.458Z,98645.16
2023-05-24T04:31:54.248Z,98632.47
2023-05-24T04:32:58.928Z,98634.28
2023-05-24T04:34:01.875Z,98635.78
2023-05-24T04:35:04.506Z,98629.47
2023-05-24T04:36:06.465Z,98636.84
2023-05-24T04:37:08.988Z,98634.84
2023-05-24T04:38:12.682Z,98640.63
2023-05-24T04:39:14.495Z,98640.19
2023-05-24T04:40:25.246Z,98636.09
2023-05-24T04:41:28.342Z,98634.28
2023-05-24T04:42:31.860Z,98637.94
2023-05-24T04:43:34.930Z,98641.00
2023-05-24T04:44:36.794Z,98647.97
2023-05-24T04:45:38.523Z,98641.38
2023-05-24T04:46:40.335Z,98639.06
2023-05-24T04:47:42.537Z,98637.28
2023-05-24T04:48:44.833Z,98641.41
2023-05-24T04:49:46.566Z,98635.88
2023-05-24T04:50:48.349Z,98634.94
2023-05-24T04:51:50.156Z,98634.50
2023-05-24T04:52:51.939Z,98629.75
2023-05-24T04:53:53.724Z,98633.59
2023-05-24T04:54:55.740Z,98628.06
2023-05-24T04:55:57.610Z,98629.78
2023-05-24T04:56:59.527Z,98627.41
2023-05-24T04:58:01.376Z,98630.66
2023-05-24T04:59:03.164Z,98627.47
2023-05-24T05:00:05.699Z,98631.28
2023-05-24T05:01:07.844Z,98624.56
2023-05-24T05:02:09.846Z,98621.66
2023-05-24T05:03:11.910Z,98626.84
2023-05-24T05:04:13.958Z,98620.84
2023-05-24T05:05:16.353Z,98620.28
2023-05-24T05:06:18.114Z,98623.25
2023-05-24T05:07:20.215Z,98626.09
2023-05-24T05:08:25.516Z,98628.41
2023-05-24T05:09:30.905Z,98623.19
2023-05-24T05:10:35.157Z,98627.63
2023-05-24T05:11:38.024Z,98610.13
2023-05-24T05:12:39.796Z,98630.56
2023-05-24T05:13:41.601Z,98619.78
2023-05-24T05:14:43.424Z,98628.50
2023-05-24T05:15:45.182Z,98631.75
2023-05-24T05:16:47.140Z,98625.44
2023-05-24T05:17:49.438Z,98629.50
2023-05-24T05:18:51.249Z,98623.34
2023-05-24T05:19:53.056Z,98618.94
2023-05-24T05:20:54.804Z,98624.69
2023-05-24T05:21:56.591Z,98633.41
2023-05-24T05:22:58.350Z,98627.88
2023-05-24T05:24:01.145Z,98625.50
2023-05-24T05:25:02.929Z,98634.44
2023-05-24T05:26:04.746Z,98646.25
2023-05-24T05:27:06.829Z,98638.78
2023-05-24T05:28:08.556Z,98646.13
2023-05-24T05:29:12.996Z,98645.50
2023-05-24T05:30:15.024Z,98651.72
2023-05-24T05:31:16.780Z,98651.34
2023-05-24T05:32:18.632Z,98644.63
2023-05-24T05:33:20.602Z,98649.91
2023-05-24T05:34:22.407Z,98660.72
2023-05-24T05:35:24.379Z,98649.22
2023-05-24T05:36:26.228Z,98650.53
2023-05-24T05:37:27.951Z,98654.19
2023-05-24T05:38:29.694Z,98656.00
2023-05-24T05:39:32.119Z,98657.13
2023-05-24T05:40:34.117Z,98662.41
2023-05-24T05:41:40.204Z,98662.25
2023-05-24T05:42:41.999Z,98660.66
2023-05-24T05:43:43.726Z,98672.94
2023-05-24T05:44:45.531Z,98662.91
2023-05-24T05:45:47.436Z,98667.88
2023-05-24T05:46:49.293Z,98673.44
2023-05-24T05:47:51.827Z,98662.63
2023-05-24T05:48:54.898Z,98674.53
2023-05-24T05:49:56.730Z,98676.44
2023-05-24T05:50:58.505Z,98674.88
2023-05-24T05:52:00.294Z,98677.44
2023-05-24T05:53:02.068Z,98680.44
2023-05-24T05:54:03.945Z,98678.16
2023-05-24T05:55:06.284Z,98668.78
2023-05-24T05:56:08.046Z,98676.28
2023-05-24T05:57:12.430Z,98672.44
2023-05-24T05:58:14.278Z,98676.13
2023-05-24T05:59:16.199Z,98671.50
2023-05-24T06:00:18.493Z,98679.63
2023-05-24T06:01:20.276Z,98671.19
2023-05-24T06:02:27.677Z,98678.16
2023-05-24T06:03:29.747Z,98674.53
2023-05-24T06:04:31.666Z,98678.03
2023-05-24T06:05:33.694Z,98678.22
2023-05-24T06:06:35.464Z,98687.97
2023-05-24T06:07:38.777Z,98675.50
2023-05-24T06:08:41.094Z,98672.59
2023-05-24T06:09:42.881Z,98678.34
2023-05-24T06:10:47.355Z,98677.53
2023-05-24T06:11:49.153Z,98674.84
2023-05-24T06:12:51.169Z,98670.84
2023-05-24T06:13:53.651Z,98679.03
2023-05-24T06:14:57.684Z,98673.94
2023-05-24T06:16:00.034Z,98679.63
2023-05-24T06:17:02.297Z,98675.34
2023-05-24T06:18:05.578Z,98678.72
2023-05-24T06:19:07.935Z,98677.06
2023-05-24T06:20:13.824Z,98685.03
2023-05-24T06:21:16.699Z,98677.84
2023-05-24T06:22:18.547Z,98678.03
2023-05-24T06:23:20.585Z,98687.13
2023-05-24T06:24:22.404Z,98682.50
2023-05-24T06:25:25.041Z,98676.94
2023-05-24T06:26:27.474Z,98683.59
2023-05-24T06:27:29.219Z,98684.19
2023-05-24T06:28:31.052Z,98683.84
2023-05-24T06:29:32.850Z,98690.00
2023-05-24T06:30:35.766Z,98685.22
2023-05-24T06:31:37.872Z,98681.34
2023-05-24T06:32:39.987Z,98687.88
2023-05-24T06:33:46.726Z,98680.75
2023-05-24T06:34:51.327Z,98678.66
2023-05-24T06:35:53.120Z,98685.00
2023-05-24T06:36:54.855Z,98679.09
2023-05-24T06:37:58.121Z,98680.47
2023-05-24T06:39:02.680Z,98682.63
2023-05-24T06:40:11.397Z,98673.69
2023-05-24T06:41:13.302Z,98687.09
2023-05-24T06:42:15.048Z,98678.25
2023-05-24T06:43:17.591Z,98680.72
2023-05-24T06:44:19.617Z,98675.72
2023-05-24T06:45:21.464Z,98684.22
2023-05-24T06:46:23.311Z,98684.00
2023-05-24T06:47:25.413Z,98684.06
2023-05-24T06:48:27.446Z,98681.25
2023-05-24T06:49:29.574Z,98679.00
2023-05-24T06:50:32.663Z,98684.00
2023-05-24T06:51:34.615Z,98684.56
2023-05-24T06:52:36.392Z,98681.81
2023-05-24T06:53:38.119Z,98682.03
2023-05-24T06:54:40.082Z,98679.59
2023-05-24T06:55:41.873Z,98686.47
2023-05-24T06:56:43.663Z,98681.69
2023-05-24T06:57:45.532Z,98687.03
2023-05-24T06:58:47.714Z,98677.72
2023-05-24T06:59:49.495Z,98681.00
2023-05-24T07:00:52.302Z,98671.88
2023-05-24T07:01:58.907Z,98676.53
2023-05-24T07:03:01.922Z,98671.88
2023-05-24T07:04:03.771Z,98679.53
2023-05-24T07:05:06.605Z,98677.75
2023-05-24T07:06:10.148Z,98679.81
2023-05-24T07:07:13.809Z,98676.22
2023-05-24T07:08:15.669Z,98679.94
2023-05-24T07:09:17.952Z,98674.59
2023-05-24T07:10:19.809Z,98677.78
2023-05-24T07:11:21.858Z,98668.00
2023-05-24T07:12:23.731Z,98673.69
2023-05-24T07:13:25.481Z,98671.75
2023-05-24T07:14:28.305Z,98679.28
2023-05-24T07:15:30.443Z,98671.00
2023-05-24T07:16:32.286Z,98663.16
2023-05-24T07:17:34.249Z,98673.25
2023-05-24T07:18:36.477Z,98665.00
2023-05-24T07:19:38.286Z,98664.56
2023-05-24T07:20:40.434Z,98667.34
2023-05-24T07:21:42.468Z,98664.38
2023-05-24T07:22:44.517Z,98669.56
2023-05-24T07:23:46.276Z,98666.59
2023-05-24T07:24:48.061Z,98663.34
2023-05-24T07:25:49.787Z,98662.53
2023-05-24T07:26:52.696Z,98669.38
2023-05-24T07:27:54.436Z,98667.72
2023-05-24T07:28:56.489Z,98661.84
2023-05-24T07:29:58.828Z,98662.97
2023-05-24T07:31:01.081Z,98648.63
2023-05-24T07:32:02.889Z,98661.66
2023-05-24T07:33:04.740Z,98664.28
2023-05-24T07:34:06.565Z,98664.38
2023-05-24T07:35:08.916Z,98660.59
2023-05-24T07:36:11.920Z,98661.25
2023-05-24T07:37:13.717Z,98664.47
2023-05-24T07:38:15.503Z,98660.22
2023-05-24T07:39:17.266Z,98645.63
2023-05-24T07:40:19.210Z,98661.44
2023-05-24T07:41:26.704Z,98662.81
2023-05-24T07:42:28.518Z,98667.91
2023-05-24T07:43:30.514Z,98660.56
2023-05-24T07:44:32.384Z,98654.97
2023-05-24T07:45:34.285Z,98669.44
2023-05-24T07:46:36.130Z,98664.28
2023-05-24T07:47:39.608Z,98664.72
2023-05-24T07:48:41.708Z,98662.84
2023-05-24T07:49:43.488Z,98669.91
2023-05-24T07:50:48.866Z,98661.69
2023-05-24T07:51:50.744Z,98659.69
2023-05-24T07:52:52.661Z,98664.84
2023-05-24T07:53:54.551Z,98656.94
2023-05-24T07:54:56.316Z,98653.25
2023-05-24T07:55:58.058Z,98664.38
2023-05-24T07:56:59.866Z,98662.72
2023-05-24T07:58:02.174Z,98665.19
2023-05-24T07:59:05.310Z,98660.56
2023-05-24T08:00:15.156Z,98661.13
2023-05-24T08:01:21.400Z,98650.06
2023-05-24T08:02:23.414Z,98658.13
2023-05-24T08:03:26.065Z,98639.38
2023-05-24T08:04:28.248Z,98647.63
2023-05-24T08:05:30.188Z,98655.53
2023-05-24T08:06:35.297Z,98658.72
2023-05-24T08:07:37.151Z,98656.84
2023-05-24T08:08:40.371Z,98659.72
2023-05-24T08:09:42.178Z,98656.03
2023-05-24T08:10:44.002Z,98658.50
2023-05-24T08:11:45.968Z,98653.91
2023-05-24T08:12:47.936Z,98658.97
2023-05-24T08:13:49.680Z,98648.25
2023-05-24T08:14:51.458Z,98651.56
2023-05-24T08:15:53.257Z,98653.28
2023-05-24T08:16:55.033Z,98656.59
2023-05-24T08:17:57.022Z,98656.63
2023-05-24T08:18:58.837Z,98655.91
2023-05-24T08:20:01.208Z,98657.53
2023-05-24T08:21:03.038Z,98649.28
2023-05-24T08:22:05.048Z,98656.13
2023-05-24T08:23:06.942Z,98652.03
2023-05-24T08:24:09.648Z,98652.16
2023-05-24T08:25:14.609Z,98644.78
2023-05-24T08:26:19.274Z,98650.81
2023-05-24T08:27:21.548Z,98649.50
2023-05-24T08:28:23.480Z,98650.34
2023-05-24T08:29:25.485Z,98660.31
2023-05-24T08:30:27.300Z,98656.56
2023-05-24T08:31:29.058Z,98658.91
2023-05-24T08:32:32.403Z,98668.00
2023-05-24T08:33:34.213Z,98661.38
2023-05-24T08:34:39.017Z,98654.47
2023-05-24T08:35:41.589Z,98659.28
2023-05-24T08:36:44.078Z,98663.34
2023-05-24T08:37:47.466Z,98660.31
2023-05-24T08:38:49.281Z,98664.72
2023-05-24T08:39:51.282Z,98659.41
2023-05-24T08:40:53.197Z,98659.47
2023-05-24T08:42:08.525Z,98659.72
2023-05-24T08:43:12.368Z,98661.50
2023-05-24T08:44:14.591Z,98653.66
2023-05-24T08:45:18.212Z,98653.13
2023-05-24T08:46:20.436Z,98661.50
2023-05-24T08:47:22.657Z,98655.69
2023-05-24T08:48:25.900Z,98665.28
2023-05-24T08:49:32.083Z,98656.78
2023-05-24T08:50:35.789Z,98645.06
2023-05-24T08:51:39.834Z,98658.53
2023-05-24T08:52:42.839Z,98661.78
2023-05-24T08:53:48.861Z,98659.13
2023-05-24T08:54:53.232Z,98664.72
2023-05-24T08:55:56.293Z,98665.50
2023-05-24T08:56:59.474Z,98665.53
2023-05-24T08:58:01.515Z,98664.75
2023-05-24T08:59:03.342Z,98659.63
2023-05-24T09:00:07.292Z,98665.16
2023-05-24T09:01:11.554Z,98659.28
2023-05-24T09:02:15.314Z,98663.22
2023-05-24T09:03:18.820Z,98660.84
2023-05-24T09:04:25.268Z,98659.69
2023-05-24T09:05:28.880Z,98656.19
2023-05-24T09:06:30.852Z,98653.47
2023-05-24T09:07:33.355Z,98660.84
2023-05-24T09:08:37.544Z,98667.09
2023-05-24T09:09:45.413Z,98669.50
2023-05-24T09:10:55.014Z,98660.47
2023-05-24T09:12:02.285Z,98662.03
2023-05-24T09:13:07.481Z,98647.88
2023-05-24T09:14:09.757Z,98659.22
2023-05-24T09:15:12.252Z,98665.03
2023-05-24T09:16:15.555Z,98652.09
2023-05-24T09:17:17.550Z,98656.88
2023-05-24T09:18:19.431Z,98648.25
2023-05-24T09:19:21.326Z,98658.53
2023-05-24T09:20:23.524Z,98664.03
2023-05-24T09:21:25.783Z,98658.94
2023-05-24T09:22:30.674Z,98654.66
2023-05-24T09:23:32.868Z,98657.00
2023-05-24T09:24:41.693Z,98666.47
2023-05-24T09:25:48.096Z,98656.28
2023-05-24T09:26:51.160Z,98663.75
2023-05-24T09:27:53.919Z,98659.06
2023-05-24T09:28:56.665Z,98649.97
2023-05-24T09:29:59.019Z,98657.03
2023-05-24T09:31:06.370Z,98650.75
2023-05-24T09:32:09.516Z,98654.72
2023-05-24T09:33:12.965Z,98660.22
2023-05-24T09:34:18.069Z,98648.03
2023-05-24T09:35:19.864Z,98659.84
2023-05-24T09:36:22.027Z,98656.31
2023-05-24T09:37:31.093Z,98656.13
2023-05-24T09:38:36.505Z,98657.25
2023-05-24T09:39:42.232Z,98658.38
2023-05-24T09:40:45.008Z,98655.09
2023-05-24T09:41:56.797Z,98644.41
2023-05-24T09:43:09.949Z,98651.13
2023-05-24T09:44:15.499Z,98657.53
2023-05-24T09:45:17.805Z,98657.31
2023-05-24T09:46:20.269Z,98649.78
2023-05-24T09:47:22.245Z,98650.75
2023-05-24T09:48:24.243Z,98653.06
2023-05-24T09:49:26.065Z,98645.50
2023-05-24T09:50:27.943Z,98648.56
2023-05-24T09:51:31.177Z,98645.41
2023-05-24T09:52:37.087Z,98648.78
2023-05-24T09:53:38.909Z,98654.75
2023-05-24T09:54:41.881Z,98653.97
2023-05-24T09:55:43.874Z,98656.19
2023-05-24T09:56:46.859Z,98655.38
2023-05-24T09:57:54.010Z,98648.13
2023-05-24T09:58:56.856Z,98651.09
2023-05-24T09:59:59.620Z,98649.41
2023-05-24T10:01:09.186Z,98645.88
2023-05-24T10:02:12.639Z,98648.88
2023-05-24T10:03:15.391Z,98651.03
2023-05-24T10:04:17.440Z,98647.28
2023-05-24T10:05:19.398Z,98651.09
2023-05-24T10:06:21.407Z,98645.84
2023-05-24T10:07:23.203Z,98645.25
2023-05-24T10:08:26.571Z,98639.66
2023-05-24T10:09:34.231Z,98647.44
2023-05-24T10:10:36.688Z,98635.88
2023-05-24T10:11:38.618Z,98639.00
2023-05-24T10:12:46.989Z,98636.69
2023-05-24T10:13:49.706Z,98638.66
2023-05-24T10:14:52.583Z,98639.69
2023-05-24T10:15:54.450Z,98636.81
2023-05-24T10:16:56.634Z,98632.72
2023-05-24T10:18:00.134Z,98632.88
2023-05-24T10:19:01.991Z,98631.53
2023-05-24T10:20:07.011Z,98635.06
2023-05-24T10:21:11.337Z,98635.25
2023-05-24T10:22:14.347Z,98634.16
2023-05-24T10:23:21.791Z,98632.72
2023-05-24T10:24:27.147Z,98634.22
2023-05-24T10:25:30.084Z,98634.13
2023-05-24T10:26:32.973Z,98630.72
2023-05-24T10:27:36.128Z,98635.94
2023-05-24T10:28:49.126Z,98632.94
2023-05-24T10:30:08.049Z,98616.19
2023-05-24T10:31:16.125Z,98633.22
2023-05-24T10:32:19.702Z,98635.66
2023-05-24T10:33:24.226Z,98629.69
2023-05-24T10:34:26.906Z,98625.44
2023-05-24T10:35:29.892Z,98623.16
2023-05-24T10:36:32.831Z,98622.41
2023-05-24T10:37:34.669Z,98626.38
2023-05-24T10:38:40.151Z,98594.50
2023-05-24T10:39:42.144Z,98626.00
2023-05-24T10:40:44.028Z,98621.94
2023-05-24T10:41:45.951Z,98614.34
2023-05-24T10:42:48.300Z,98614.28
2023-05-24T10:44:07.881Z,98615.03
2023-05-24T10:45:33.071Z,98619.06
2023-05-24T10:46:35.080Z,98612.75
2023-05-24T10:47:39.161Z,98614.75
2023-05-24T10:48:44.107Z,98610.75
2023-05-24T10:49:54.856Z,98606.63
2023-05-24T10:50:56.563Z,98612.25
2023-05-24T10:52:03.340Z,98599.88
2023-05-24T10:53:19.129Z,98597.41
2023-05-24T10:54:27.369Z,98597.06
2023-05-24T10:55:29.219Z,98601.09
2023-05-24T10:56:31.299Z,98593.00
2023-05-24T10:57:33.379Z,98592.44
2023-05-24T10:58:38.061Z,98599.31
2023-05-24T10:59:40.492Z,98595.22
2023-05-24T11:00:44.639Z,98595.25
2023-05-24T11:01:55.256Z,98581.81
2023-05-24T11:03:11.132Z,98595.84
2023-05-24T11:04:17.198Z,98591.16
2023-05-24T11:05:19.903Z,98589.34
2023-05-24T11:06:55.786Z,98586.59
2023-05-24T11:08:01.697Z,98582.19
2023-05-24T11:09:03.680Z,98578.66
2023-05-24T11:10:10.523Z,98583.56
2023-05-24T11:12:20.824Z,98583.84
2023-05-24T11:13:22.680Z,98579.41
2023-05-24T11:14:27.785Z,98580.13
2023-05-24T11:15:30.401Z,98584.25
2023-05-24T11:16:40.142Z,98584.66
2023-05-24T11:18:09.247Z,98578.19
2023-05-24T11:19:18.104Z,98579.84
2023-05-24T11:20:20.668Z,98586.09
2023-05-24T11:21:23.794Z,98583.84
2023-05-24T11:22:26.924Z,98582.06
2023-05-24T11:23:29.965Z,98588.78
2023-05-24T11:24:33.154Z,98580.91
2023-05-24T11:25:38.864Z,98586.59
2023-05-24T11:26:41.344Z,98576.34
2023-05-24T11:27:44.803Z,98575.03
2023-05-24T11:28:47.878Z,98580.41
2023-05-24T11:29:49.707Z,98574.50
2023-05-24T11:30:53.636Z,98567.25
2023-05-24T11:32:06.184Z,98576.56
2023-05-24T11:33:16.258Z,98576.66
2023-05-24T11:34:19.141Z,98570.88
2023-05-24T11:35:23.238Z,98571.97
2023-05-24T11:36:26.205Z,98579.16
2023-05-24T11:37:38.630Z,98575.81
2023-05-24T11:38:49.000Z,98575.41
2023-05-24T11:39:54.512Z,98578.31
2023-05-24T11:40:58.491Z,98574.66
2023-05-24T11:42:01.562Z,98577.56
2023-05-24T11:43:06.822Z,98579.50
2023-05-24T11:44:10.399Z,98576.09
2023-05-24T11:45:14.074Z,98571.78
2023-05-24T11:46:16.519Z,98578.97
2023-05-24T11:47:20.902Z,98575.13
2023-05-24T11:48:22.780Z,98581.69
2023-05-24T11:49:24.578Z,98575.50
2023-05-24T11:50:28.505Z,98574.25
2023-05-24T11:51:32.348Z,98570.22
2023-05-24T11:52:40.163Z,98567.75
2023-05-24T11:53:41.941Z,98571.81
2023-05-24T11:54:43.839Z,98570.44
2023-05-24T11:55:45.667Z,98577.13
2023-05-24T11:56:47.867Z,98565.53
2023-05-24T11:57:57.976Z,98571.06
2023-05-24T11:59:23.775Z,98575.59
2023-05-24T12:00:26.898Z,98577.75
2023-05-24T12:01:29.106Z,98569.66
2023-05-24T12:02:31.181Z,98573.66
2023-05-24T12:03:33.215Z,98563.69
2023-05-24T12:04:35.385Z,98570.25
2023-05-24T12:05:38.129Z,98565.00
2023-05-24T12:06:42.384Z,98573.19
2023-05-24T12:07:48.918Z,98558.22
2023-05-24T12:08:50.887Z,98559.16
2023-05-24T12:09:52.768Z,98557.53
2023-05-24T12:10:54.800Z,98559.19
2023-05-24T12:11:58.544Z,98556.09
2023-05-24T12:13:00.725Z,98554.78
2023-05-24T12:14:02.932Z,98555.19
2023-05-24T12:15:08.123Z,98554.25
2023-05-24T12:16:12.202Z,98543.50
2023-05-24T12:17:18.551Z,98542.34
2023-05-24T12:18:24.833Z,98528.09
2023-05-24T12:19:34.837Z,98539.75
2023-05-24T12:20:39.250Z,98544.88
2023-05-24T12:21:41.930Z,98545.56
2023-05-24T12:22:51.815Z,98544.38
2023-05-24T12:23:53.637Z,98530.88
2023-05-24T12:24:55.454Z,98533.06
2023-05-24T12:26:01.163Z,98534.84
2023-05-24T12:27:07.988Z,98533.50
2023-05-24T12:28:10.102Z,98522.31
2023-05-24T12:29:12.854Z,98528.59
2023-05-24T12:30:21.423Z,98521.66